createdAt,value
2019-03-10T00:00:03.070Z,81.56
2019-03-10T00:01:03.060Z,81.46
2019-03-10T00:02:03.114Z,81.46
2019-03-10T00:03:03.046Z,81.35
2019-03-10T00:04:03.016Z,81.56
2019-03-10T00:05:03.003Z,80.94
2019-03-10T00:06:02.998Z,81.05
2019-03-10T00:07:02.986Z,80.74
2019-03-10T00:08:03.012Z,81.46
2019-03-10T00:09:02.959Z,81.01
2019-03-10T00:10:02.947Z,81.01
2019-03-10T00:11:02.936Z,80.63
2019-03-10T00:12:02.925Z,81.05
2019-03-10T00:13:02.920Z,81.39
2019-03-10T00:14:02.956Z,80.22
2019-03-10T00:15:02.891Z,80.02
2019-03-10T00:16:02.882Z,80.63
2019-03-10T00:17:02.873Z,80.63
2019-03-10T00:18:02.860Z,81.76
2019-03-10T00:19:02.852Z,81.46
2019-03-10T00:20:02.911Z,81.76
2019-03-10T00:21:02.911Z,82.28
2019-03-10T00:22:02.819Z,81.87
2019-03-10T00:23:02.812Z,81.70
2019-03-10T00:24:02.809Z,81.46
2019-03-10T00:25:02.788Z,81.25
2019-03-10T00:26:02.822Z,80.77
2019-03-10T00:27:02.770Z,80.33
2019-03-10T00:28:02.765Z,80.77
2019-03-10T00:29:02.742Z,80.84
2019-03-10T00:30:02.732Z,81.46
2019-03-10T00:31:02.722Z,80.33
2019-03-10T00:32:02.767Z,79.95
2019-03-10T00:33:02.697Z,81.39
2019-03-10T00:34:02.690Z,81.56
2019-03-10T00:35:02.679Z,81.56
2019-03-10T00:36:02.666Z,80.94
2019-03-10T00:37:02.655Z,80.43
2019-03-10T00:38:02.713Z,80.53
2019-03-10T00:39:02.640Z,80.43
2019-03-10T00:40:02.621Z,80.26
2019-03-10T00:41:02.614Z,80.98
2019-03-10T00:42:02.608Z,81.49
2019-03-10T00:43:02.593Z,80.22
2019-03-10T00:44:02.643Z,79.40
2019-03-10T00:45:02.571Z,80.84
2019-03-10T00:46:02.558Z,80.57
2019-03-10T00:47:02.556Z,81.60
2019-03-10T00:48:02.547Z,80.88
2019-03-10T00:49:02.530Z,81.29
2019-03-10T00:50:02.565Z,80.77
2019-03-10T00:51:02.503Z,80.98
2019-03-10T00:52:02.491Z,80.47
2019-03-10T00:53:02.484Z,80.67
2019-03-10T00:54:02.468Z,80.98
2019-03-10T00:55:02.465Z,81.63
2019-03-10T00:56:02.517Z,81.02
2019-03-10T00:57:02.437Z,81.39
2019-03-10T00:58:02.430Z,82.11
2019-03-10T00:59:02.421Z,81.53
2019-03-10T01:00:02.408Z,81.33
2019-03-10T01:01:02.394Z,81.53
2019-03-10T01:02:02.426Z,81.60
2019-03-10T01:03:02.375Z,81.74
2019-03-10T01:04:02.362Z,81.53
2019-03-10T01:05:02.357Z,81.63
2019-03-10T01:06:02.340Z,81.60
2019-03-10T01:07:02.328Z,81.63
2019-03-10T01:08:02.395Z,80.51
2019-03-10T01:09:02.317Z,80.81
2019-03-10T01:10:02.299Z,80.36
2019-03-10T01:11:02.288Z,81.02
2019-03-10T01:12:02.279Z,80.16
2019-03-10T01:13:02.265Z,80.30
2019-03-10T01:14:02.314Z,80.57
2019-03-10T01:15:02.246Z,80.67
2019-03-10T01:16:02.236Z,80.26
2019-03-10T01:17:02.223Z,80.71
2019-03-10T01:18:02.211Z,80.91
2019-03-10T01:19:02.203Z,80.77
2019-03-10T01:20:02.237Z,80.61
2019-03-10T01:21:02.180Z,80.30
2019-03-10T01:22:02.168Z,80.81
2019-03-10T01:23:02.160Z,80.61
2019-03-10T01:24:02.151Z,80.36
2019-03-10T01:25:02.140Z,80.71
2019-03-10T01:26:02.181Z,80.51
2019-03-10T01:27:02.115Z,79.99
2019-03-10T01:28:02.109Z,80.26
2019-03-10T01:29:02.096Z,80.19
2019-03-10T01:30:02.082Z,80.88
2019-03-10T01:31:02.069Z,80.77
2019-03-10T01:32:02.122Z,80.81
2019-03-10T01:33:02.048Z,81.39
2019-03-10T01:34:02.040Z,80.51
2019-03-10T01:35:02.032Z,80.91
2019-03-10T01:36:02.014Z,81.53
2019-03-10T01:37:02.006Z,80.71
2019-03-10T01:38:02.030Z,81.33
2019-03-10T01:39:01.984Z,81.84
2019-03-10T01:40:01.976Z,81.43
2019-03-10T01:41:01.959Z,82.25
2019-03-10T01:42:01.949Z,83.28
2019-03-10T01:43:01.966Z,82.05
2019-03-10T01:44:01.990Z,82.81
2019-03-10T01:45:01.924Z,82.60
2019-03-10T01:46:01.912Z,82.91
2019-03-10T01:47:01.900Z,83.42
2019-03-10T01:48:01.886Z,83.42
2019-03-10T01:49:01.875Z,83.63
2019-03-10T01:50:01.924Z,83.94
2019-03-10T01:51:01.852Z,83.22
2019-03-10T01:52:01.841Z,83.01
2019-03-10T01:53:01.829Z,83.32
2019-03-10T01:54:01.834Z,83.12
2019-03-10T01:55:01.828Z,84.25
2019-03-10T01:56:01.857Z,84.56
2019-03-10T01:57:01.807Z,83.84
2019-03-10T01:58:01.783Z,83.53
2019-03-10T01:59:01.766Z,84.25
2019-03-10T02:00:01.758Z,84.35
2019-03-10T02:01:01.746Z,84.66
2019-03-10T02:02:01.774Z,84.80
2019-03-10T02:03:01.748Z,84.70
2019-03-10T02:04:01.740Z,83.98
2019-03-10T02:05:01.706Z,84.08
2019-03-10T02:06:01.690Z,83.87
2019-03-10T02:07:01.684Z,83.56
2019-03-10T02:08:01.829Z,83.98
2019-03-10T02:09:01.717Z,84.29
2019-03-10T02:10:01.650Z,83.98
2019-03-10T02:11:01.636Z,83.67
2019-03-10T02:12:01.626Z,83.67
2019-03-10T02:13:01.615Z,83.26
2019-03-10T02:14:01.641Z,82.95
2019-03-10T02:15:01.605Z,81.71
2019-03-10T02:16:01.584Z,81.61
2019-03-10T02:17:01.572Z,80.23
2019-03-10T02:18:01.573Z,80.23
2019-03-10T02:19:01.554Z,79.06
2019-03-10T02:20:01.613Z,78.03
2019-03-10T02:21:01.549Z,78.34
2019-03-10T02:22:01.516Z,77.42
2019-03-10T02:23:01.509Z,77.21
2019-03-10T02:24:01.498Z,77.69
2019-03-10T02:25:01.492Z,77.79
2019-03-10T02:26:01.621Z,77.42
2019-03-10T02:27:01.480Z,78.03
2019-03-10T02:28:01.458Z,79.06
2019-03-10T02:29:01.444Z,78.34
2019-03-10T02:30:01.433Z,78.96
2019-03-10T02:31:01.420Z,78.55
2019-03-10T02:32:01.451Z,79.06
2019-03-10T02:33:01.416Z,79.99
2019-03-10T02:34:01.387Z,80.30
2019-03-10T02:35:01.384Z,80.19
2019-03-10T02:36:01.368Z,80.75
2019-03-10T02:37:01.358Z,81.77
2019-03-10T02:38:01.418Z,82.09
2019-03-10T02:39:01.359Z,81.47
2019-03-10T02:40:01.327Z,82.29
2019-03-10T02:41:01.313Z,82.09
2019-03-10T02:42:01.300Z,82.09
2019-03-10T02:43:01.297Z,81.67
2019-03-10T02:44:01.327Z,81.05
2019-03-10T02:45:01.293Z,80.85
2019-03-10T02:46:01.261Z,79.30
2019-03-10T02:47:01.246Z,77.51
2019-03-10T02:48:01.236Z,78.14
2019-03-10T02:49:01.231Z,77.31
2019-03-10T02:50:01.531Z,77.38
2019-03-10T02:51:01.209Z,76.76
2019-03-10T02:52:01.202Z,77.28
2019-03-10T02:53:01.200Z,76.76
2019-03-10T02:54:01.185Z,77.07
2019-03-10T02:55:01.176Z,77.42
2019-03-10T02:56:01.219Z,78.03
2019-03-10T02:57:01.143Z,78.72
2019-03-10T02:58:01.144Z,78.24
2019-03-10T02:59:01.119Z,79.03
2019-03-10T03:00:01.109Z,78.51
2019-03-10T03:01:01.118Z,79.06
2019-03-10T03:02:01.126Z,80.30
2019-03-10T03:03:01.073Z,80.40
2019-03-10T03:04:01.069Z,80.81
2019-03-10T03:05:01.055Z,81.53
2019-03-10T03:06:01.057Z,81.47
2019-03-10T03:07:01.071Z,81.53
2019-03-10T03:08:01.091Z,81.47
2019-03-10T03:09:01.012Z,81.77
2019-03-10T03:10:01.000Z,81.37
2019-03-10T03:11:00.992Z,81.37
2019-03-10T03:12:00.992Z,83.42
2019-03-10T03:13:00.968Z,84.14
2019-03-10T03:14:01.004Z,84.59
2019-03-10T03:15:00.944Z,84.91
2019-03-10T03:16:00.933Z,85.31
2019-03-10T03:17:00.923Z,85.11
2019-03-10T03:18:00.930Z,85.83
2019-03-10T03:19:00.898Z,86.15
2019-03-10T03:20:00.919Z,85.73
2019-03-10T03:21:00.882Z,86.18
2019-03-10T03:22:00.868Z,86.35
2019-03-10T03:23:00.865Z,87.01
2019-03-10T03:24:00.862Z,87.17
2019-03-10T03:25:00.837Z,87.32
2019-03-10T03:26:00.870Z,87.52
2019-03-10T03:27:02.594Z,87.32
2019-03-10T03:28:00.800Z,87.32
2019-03-10T03:29:00.794Z,87.42
2019-03-10T03:30:00.801Z,87.32
2019-03-10T03:31:00.768Z,86.60
2019-03-10T03:32:00.797Z,86.90
2019-03-10T03:33:00.759Z,86.70
2019-03-10T03:34:00.738Z,86.70
2019-03-10T03:35:01.053Z,87.21
2019-03-10T03:36:00.750Z,87.32
2019-03-10T03:37:00.707Z,86.70
2019-03-10T03:38:00.738Z,87.05
2019-03-10T03:39:00.699Z,87.01
2019-03-10T03:40:00.671Z,88.39
2019-03-10T03:41:00.667Z,87.83
2019-03-10T03:42:00.667Z,88.35
2019-03-10T03:43:00.641Z,88.29
2019-03-10T03:44:00.781Z,89.22
2019-03-10T03:45:00.665Z,88.86
2019-03-10T03:46:00.608Z,88.76
2019-03-10T03:47:00.610Z,88.56
2019-03-10T03:48:00.602Z,88.59
2019-03-10T03:49:00.575Z,88.39
2019-03-10T03:50:00.712Z,88.59
2019-03-10T03:51:00.557Z,89.32
2019-03-10T03:52:00.548Z,89.69
2019-03-10T03:53:00.539Z,90.04
2019-03-10T03:54:00.538Z,89.94
2019-03-10T03:55:00.518Z,90.45
2019-03-10T03:56:00.561Z,91.13
2019-03-10T03:57:00.493Z,91.07
2019-03-10T03:58:00.503Z,91.48
2019-03-10T03:59:00.470Z,92.10
2019-03-10T04:00:00.479Z,91.79
2019-03-10T04:01:00.447Z,92.00
2019-03-10T04:02:00.486Z,92.00
2019-03-10T04:03:00.427Z,92.10
2019-03-10T04:04:00.414Z,92.10
2019-03-10T04:05:00.544Z,92.10
2019-03-10T04:06:00.414Z,91.89
2019-03-10T04:07:00.382Z,92.10
2019-03-10T04:08:00.409Z,92.31
2019-03-10T04:09:00.365Z,92.55
2019-03-10T04:10:00.471Z,92.46
2019-03-10T04:11:00.336Z,92.72
2019-03-10T04:12:00.339Z,92.86
2019-03-10T04:13:00.315Z,92.86
2019-03-10T04:14:00.466Z,93.28
2019-03-10T04:15:00.498Z,93.49
2019-03-10T04:16:00.291Z,93.38
2019-03-10T04:17:00.292Z,93.28
2019-03-10T04:18:00.288Z,93.38
2019-03-10T04:19:00.259Z,93.28
2019-03-10T04:20:00.475Z,93.38
2019-03-10T04:21:00.230Z,93.07
2019-03-10T04:22:00.221Z,92.97
2019-03-10T04:23:00.210Z,93.38
2019-03-10T04:24:00.227Z,93.28
2019-03-10T04:25:00.436Z,93.59
2019-03-10T04:26:00.220Z,93.69
2019-03-10T04:27:00.166Z,94.10
2019-03-10T04:28:00.186Z,94.31
2019-03-10T04:29:00.145Z,94.31
2019-03-10T04:30:00.430Z,94.42
2019-03-10T04:31:00.120Z,94.42
2019-03-10T04:32:00.207Z,94.31
2019-03-10T04:33:00.103Z,95.14
2019-03-10T04:34:00.088Z,95.14
2019-03-10T04:35:00.183Z,95.24
2019-03-10T04:36:00.066Z,94.93
2019-03-10T04:37:00.076Z,94.62
2019-03-10T04:38:00.090Z,94.72
2019-03-10T04:39:00.032Z,95.03
2019-03-10T04:40:00.023Z,95.24
2019-03-10T04:41:00.023Z,95.86
2019-03-10T04:42:00.004Z,95.86
2019-03-10T04:43:00.001Z,95.76
2019-03-10T04:44:00.017Z,95.96
2019-03-10T04:44:59.971Z,96.06
2019-03-10T04:45:59.957Z,96.06
2019-03-10T04:46:59.953Z,96.06
2019-03-10T04:47:59.934Z,96.27
2019-03-10T04:48:59.935Z,96.37
2019-03-10T04:49:59.974Z,96.48
2019-03-10T04:50:59.903Z,96.06
2019-03-10T04:51:59.895Z,96.48
2019-03-10T04:52:59.881Z,96.62
2019-03-10T04:53:59.965Z,96.52
2019-03-10T04:54:59.859Z,96.73
2019-03-10T04:55:59.879Z,96.31
2019-03-10T04:56:59.861Z,96.52
2019-03-10T04:57:59.835Z,96.52
2019-03-10T04:58:59.815Z,96.52
2019-03-10T04:59:59.813Z,96.31
2019-03-10T05:00:59.798Z,96.73
2019-03-10T05:01:59.836Z,96.73
2019-03-10T05:02:59.773Z,97.04
2019-03-10T05:03:59.763Z,96.42
2019-03-10T05:04:59.778Z,97.45
2019-03-10T05:05:59.809Z,97.29
2019-03-10T05:06:59.733Z,97.25
2019-03-10T05:07:59.755Z,97.39
2019-03-10T05:08:59.715Z,97.04
2019-03-10T05:09:59.700Z,97.04
2019-03-10T05:10:59.689Z,96.94
2019-03-10T05:11:59.689Z,97.45
2019-03-10T05:12:59.668Z,97.55
2019-03-10T05:13:59.683Z,97.60
2019-03-10T05:14:59.643Z,97.71
2019-03-10T05:15:59.638Z,97.66
2019-03-10T05:16:59.622Z,97.71
2019-03-10T05:17:59.641Z,97.50
2019-03-10T05:18:59.603Z,97.97
2019-03-10T05:19:59.628Z,97.91
2019-03-10T05:20:59.577Z,97.97
2019-03-10T05:21:59.572Z,97.91
2019-03-10T05:22:59.559Z,97.97
2019-03-10T05:23:59.557Z,98.43
2019-03-10T05:24:59.538Z,98.22
2019-03-10T05:25:59.579Z,97.91
2019-03-10T05:26:59.512Z,98.69
2019-03-10T05:27:59.503Z,98.79
2019-03-10T05:28:59.493Z,98.79
2019-03-10T05:29:59.486Z,98.84
2019-03-10T05:30:59.469Z,99.00
2019-03-10T05:31:59.489Z,98.74
2019-03-10T05:32:59.448Z,98.69
2019-03-10T05:33:59.444Z,98.74
2019-03-10T05:34:59.431Z,98.69
2019-03-10T05:35:59.423Z,98.49
2019-03-10T05:36:59.411Z,98.53
2019-03-10T05:37:59.446Z,98.53
2019-03-10T05:38:59.388Z,98.18
2019-03-10T05:39:59.376Z,98.22
2019-03-10T05:40:59.361Z,98.58
2019-03-10T05:41:59.388Z,98.38
2019-03-10T05:42:59.341Z,98.32
2019-03-10T05:43:59.536Z,98.22
2019-03-10T05:44:59.335Z,98.53
2019-03-10T05:45:59.309Z,98.49
2019-03-10T05:46:59.298Z,98.53
2019-03-10T05:47:59.317Z,98.63
2019-03-10T05:48:59.276Z,98.22
2019-03-10T05:49:59.298Z,98.38
2019-03-10T05:50:59.255Z,98.11
2019-03-10T05:51:59.246Z,98.32
2019-03-10T05:53:00.785Z,98.11
2019-03-10T05:53:59.248Z,98.38
2019-03-10T05:54:59.214Z,98.49
2019-03-10T05:55:59.255Z,98.58
2019-03-10T05:56:59.191Z,98.58
2019-03-10T05:57:59.183Z,98.53
2019-03-10T05:58:59.170Z,98.53
2019-03-10T05:59:59.173Z,98.94
2019-03-10T06:00:59.150Z,98.63
2019-03-10T06:01:59.188Z,98.69
2019-03-10T06:02:59.125Z,98.90
2019-03-10T06:03:59.115Z,99.05
2019-03-10T06:04:59.108Z,99.35
2019-03-10T06:05:59.123Z,98.74
2019-03-10T06:06:59.091Z,98.94
2019-03-10T06:07:59.100Z,98.94
2019-03-10T06:08:59.064Z,98.84
2019-03-10T06:09:59.049Z,99.05
2019-03-10T06:10:59.041Z,99.31
2019-03-10T06:11:59.038Z,98.94
2019-03-10T06:12:59.024Z,99.21
2019-03-10T06:13:59.064Z,99.35
2019-03-10T06:14:58.996Z,99.31
2019-03-10T06:15:58.987Z,99.35
2019-03-10T06:16:58.972Z,99.25
2019-03-10T06:17:58.981Z,99.56
2019-03-10T06:18:58.952Z,99.82
2019-03-10T06:19:58.990Z,99.93
2019-03-10T06:20:58.934Z,99.66
2019-03-10T06:21:58.937Z,99.46
2019-03-10T06:22:58.913Z,99.77
2019-03-10T06:23:58.915Z,99.62
2019-03-10T06:24:58.894Z,99.46
2019-03-10T06:25:58.930Z,99.87
2019-03-10T06:26:58.871Z,99.87
2019-03-10T06:27:58.856Z,99.87
2019-03-10T06:28:58.849Z,99.87
2019-03-10T06:29:58.858Z,99.87
2019-03-10T06:30:58.890Z,99.93
2019-03-10T06:31:58.868Z,99.93
2019-03-10T06:32:58.805Z,99.82
2019-03-10T06:33:58.791Z,99.82
2019-03-10T06:34:58.780Z,99.93
2019-03-10T06:35:58.822Z,99.99
2019-03-10T06:36:58.762Z,99.82
2019-03-10T06:37:58.880Z,99.93
2019-03-10T06:38:58.736Z,99.93
2019-03-10T06:39:58.724Z,99.72
2019-03-10T06:40:58.715Z,99.99
2019-03-10T06:41:58.719Z,99.99
2019-03-10T06:42:58.692Z,99.99
2019-03-10T06:43:58.731Z,99.99
2019-03-10T06:44:58.699Z,99.99
2019-03-10T06:45:58.665Z,99.99
2019-03-10T06:46:58.670Z,99.99
2019-03-10T06:47:58.643Z,99.99
2019-03-10T06:48:58.629Z,99.99
2019-03-10T06:49:58.695Z,99.88
2019-03-10T06:50:58.608Z,99.99
2019-03-10T06:51:58.594Z,99.99
2019-03-10T06:52:58.593Z,99.99
2019-03-10T06:53:58.579Z,99.99
2019-03-10T06:54:58.566Z,99.99
2019-03-10T06:55:58.618Z,99.99
2019-03-10T06:56:58.545Z,99.99
2019-03-10T06:57:58.529Z,99.99
2019-03-10T06:58:58.525Z,99.99
2019-03-10T06:59:58.513Z,99.94
2019-03-10T07:01:07.463Z,99.94
2019-03-10T07:01:58.492Z,99.99
2019-03-10T07:02:58.509Z,99.99
2019-03-10T07:03:58.467Z,99.99
2019-03-10T07:04:58.456Z,99.99
2019-03-10T07:05:58.462Z,99.99
2019-03-10T07:06:58.473Z,99.99
2019-03-10T07:07:58.422Z,99.99
2019-03-10T07:08:58.415Z,99.99
2019-03-10T07:09:58.402Z,99.99
2019-03-10T07:10:58.402Z,99.99
2019-03-10T07:11:58.382Z,99.99
2019-03-10T07:12:58.419Z,99.99
2019-03-10T07:13:58.409Z,99.99
2019-03-10T07:14:58.348Z,99.99
2019-03-10T07:15:58.340Z,99.77
2019-03-10T07:16:58.328Z,99.57
2019-03-10T07:17:58.317Z,99.11
2019-03-10T07:18:58.359Z,97.78
2019-03-10T07:19:58.312Z,97.42
2019-03-10T07:20:58.322Z,97.22
2019-03-10T07:21:58.302Z,96.91
2019-03-10T07:22:58.275Z,96.77
2019-03-10T07:23:58.258Z,96.35
2019-03-10T07:24:58.312Z,96.25
2019-03-10T07:25:58.239Z,95.84
2019-03-10T07:26:58.225Z,96.04
2019-03-10T07:27:58.259Z,95.90
2019-03-10T07:28:58.206Z,95.49
2019-03-10T07:29:58.215Z,95.49
2019-03-10T07:30:58.208Z,95.69
2019-03-10T07:31:58.178Z,95.49
2019-03-10T07:33:05.863Z,95.59
2019-03-10T07:34:07.475Z,95.59
2019-03-10T07:34:58.163Z,95.65
2019-03-10T07:36:08.289Z,95.34
2019-03-10T07:36:58.119Z,95.90
2019-03-10T07:37:58.144Z,95.44
2019-03-10T07:38:58.284Z,95.44
2019-03-10T07:40:01.635Z,95.29
2019-03-10T07:41:00.624Z,95.40
2019-03-10T07:41:59.599Z,95.20
2019-03-10T07:42:58.044Z,95.56
2019-03-10T07:43:58.074Z,95.25
2019-03-10T07:45:07.632Z,95.15
2019-03-10T07:45:58.103Z,95.36
2019-03-10T07:46:57.998Z,95.46
2019-03-10T07:47:58.080Z,95.25
2019-03-10T07:48:58.013Z,95.76
2019-03-10T07:49:57.971Z,95.82
2019-03-10T07:50:57.958Z,95.10
2019-03-10T07:51:57.951Z,94.49
2019-03-10T07:52:57.935Z,94.59
2019-03-10T07:53:58.012Z,94.24
2019-03-10T07:54:57.916Z,93.69
2019-03-10T07:55:57.930Z,93.59
2019-03-10T07:56:57.902Z,93.89
2019-03-10T07:57:57.928Z,93.48
2019-03-10T07:58:57.877Z,92.77
2019-03-10T07:59:58.003Z,92.42
2019-03-10T08:00:57.886Z,91.86
2019-03-10T08:01:57.835Z,91.72
2019-03-10T08:02:57.827Z,91.41
2019-03-10T08:03:57.832Z,90.96
2019-03-10T08:04:57.814Z,90.25
2019-03-10T08:05:57.830Z,89.84
2019-03-10T08:06:57.786Z,89.59
2019-03-10T08:07:57.767Z,89.18
2019-03-10T08:08:57.759Z,88.93
2019-03-10T08:09:57.750Z,88.98
2019-03-10T08:10:57.759Z,87.71
2019-03-10T08:11:57.755Z,87.61
2019-03-10T08:12:57.722Z,87.10
2019-03-10T08:13:57.755Z,87.41
2019-03-10T08:14:57.692Z,86.59
2019-03-10T08:15:57.748Z,86.96
2019-03-10T08:16:57.693Z,87.06
2019-03-10T08:17:57.701Z,86.35
2019-03-10T08:18:57.694Z,85.63
2019-03-10T08:19:58.503Z,86.45
2019-03-10T08:20:57.623Z,87.47
2019-03-10T08:21:57.625Z,87.10
2019-03-10T08:22:59.201Z,87.82
2019-03-10T08:23:57.633Z,87.20
2019-03-10T08:24:57.582Z,87.10
2019-03-10T08:25:57.580Z,87.10
2019-03-10T08:26:57.570Z,87.30
2019-03-10T08:28:01.492Z,86.69
2019-03-10T08:28:57.551Z,86.08
2019-03-10T08:29:57.569Z,84.34
2019-03-10T08:30:57.538Z,84.20
2019-03-10T08:31:57.512Z,84.92
2019-03-10T08:32:57.507Z,84.11
2019-03-10T08:33:57.485Z,82.27
2019-03-10T08:34:57.570Z,81.66
2019-03-10T08:35:57.713Z,82.03
2019-03-10T08:36:57.453Z,82.37
2019-03-10T08:37:57.446Z,83.09
2019-03-10T08:38:57.466Z,82.27
2019-03-10T08:39:57.426Z,82.78
2019-03-10T08:40:57.605Z,84.11
2019-03-10T08:41:57.449Z,83.59
2019-03-10T08:42:57.387Z,84.04
2019-03-10T08:43:57.423Z,83.63
2019-03-10T08:44:57.377Z,83.80
2019-03-10T08:45:57.365Z,84.11
2019-03-10T08:46:57.386Z,83.73
2019-03-10T08:47:58.270Z,81.04
2019-03-10T08:48:57.327Z,80.94
2019-03-10T08:49:57.316Z,81.86
2019-03-10T08:50:57.307Z,82.17
2019-03-10T08:51:57.288Z,80.64
2019-03-10T08:52:57.288Z,81.35
2019-03-10T08:53:57.318Z,80.70
2019-03-10T08:54:57.260Z,81.15
2019-03-10T08:55:57.246Z,81.41
2019-03-10T08:56:57.241Z,80.94
2019-03-10T08:57:57.228Z,78.87
2019-03-10T08:58:57.217Z,78.26
2019-03-10T08:59:57.268Z,77.14
2019-03-10T09:00:57.194Z,78.22
2019-03-10T09:01:57.188Z,78.93
2019-03-10T09:02:57.174Z,78.22
2019-03-10T09:03:57.172Z,76.86
2019-03-10T09:04:57.155Z,76.45
2019-03-10T09:05:57.185Z,77.57
2019-03-10T09:06:57.134Z,76.65
2019-03-10T09:07:57.119Z,76.45
2019-03-10T09:08:57.116Z,76.04
2019-03-10T09:09:57.100Z,75.84
2019-03-10T09:10:57.085Z,76.21
2019-03-10T09:11:57.168Z,75.91
2019-03-10T09:12:57.083Z,76.31
2019-03-10T09:13:57.052Z,76.21
2019-03-10T09:14:57.042Z,78.05
2019-03-10T09:15:57.049Z,77.91
2019-03-10T09:16:57.022Z,76.79
2019-03-10T09:17:57.044Z,76.48
2019-03-10T09:18:57.007Z,76.18
2019-03-10T09:19:57.025Z,75.33
2019-03-10T09:20:57.005Z,73.74
2019-03-10T09:21:57.137Z,73.63
2019-03-10T09:22:56.973Z,74.04
2019-03-10T09:23:56.985Z,73.70
2019-03-10T09:24:56.929Z,74.21
2019-03-10T09:25:56.946Z,74.04
2019-03-10T09:26:56.909Z,74.55
2019-03-10T09:27:56.936Z,75.77
2019-03-10T09:28:56.885Z,74.65
2019-03-10T09:29:56.919Z,74.15
2019-03-10T09:30:56.881Z,74.35
2019-03-10T09:31:56.847Z,77.09
2019-03-10T09:32:56.839Z,75.16
2019-03-10T09:33:56.825Z,74.76
2019-03-10T09:34:56.818Z,73.54
2019-03-10T09:35:56.839Z,73.63
2019-03-10T09:36:56.825Z,72.86
2019-03-10T09:37:56.785Z,73.57
2019-03-10T09:38:56.771Z,73.47
2019-03-10T09:39:56.760Z,74.48
2019-03-10T09:40:56.750Z,74.08
2019-03-10T09:41:56.766Z,73.50
2019-03-10T09:42:56.774Z,75.30
2019-03-10T09:43:56.712Z,74.69
2019-03-10T09:44:56.701Z,75.20
2019-03-10T09:45:56.690Z,75.54
2019-03-10T09:46:56.677Z,74.93
2019-03-10T09:47:56.747Z,75.64
2019-03-10T09:48:56.684Z,76.52
2019-03-10T09:49:56.649Z,77.23
2019-03-10T09:50:56.636Z,76.31
2019-03-10T09:51:56.627Z,75.46
2019-03-10T09:52:56.615Z,76.28
2019-03-10T09:53:56.638Z,76.25
2019-03-10T09:54:56.618Z,75.33
2019-03-10T09:55:56.577Z,75.80
2019-03-10T09:56:56.569Z,76.04
2019-03-10T09:57:56.557Z,75.43
2019-03-10T09:58:56.544Z,72.99
2019-03-10T09:59:56.691Z,71.67
2019-03-10T10:00:56.546Z,73.26
2019-03-10T10:01:56.524Z,72.48
2019-03-10T10:02:56.497Z,70.86
2019-03-10T10:03:56.486Z,70.86
2019-03-10T10:04:56.484Z,70.58
2019-03-10T10:05:56.527Z,72.17
2019-03-10T10:06:56.489Z,72.14
2019-03-10T10:07:56.440Z,69.40
2019-03-10T10:08:56.437Z,68.86
2019-03-10T10:09:56.419Z,66.69
2019-03-10T10:10:56.417Z,68.52
2019-03-10T10:11:56.589Z,67.84
2019-03-10T10:12:56.412Z,69.57
2019-03-10T10:13:56.438Z,68.62
2019-03-10T10:14:56.366Z,69.53
2019-03-10T10:15:56.357Z,69.64
2019-03-10T10:16:56.343Z,70.99
2019-03-10T10:17:56.377Z,71.12
2019-03-10T10:18:56.335Z,71.97
2019-03-10T10:19:56.311Z,73.30
2019-03-10T10:20:56.302Z,74.25
2019-03-10T10:21:56.290Z,75.16
2019-03-10T10:22:56.275Z,76.59
2019-03-10T10:23:56.327Z,75.30
2019-03-10T10:24:56.274Z,74.90
2019-03-10T10:25:56.241Z,74.49
2019-03-10T10:26:56.229Z,73.77
2019-03-10T10:27:56.275Z,74.45
2019-03-10T10:28:56.208Z,74.65
2019-03-10T10:29:56.242Z,75.27
2019-03-10T10:30:56.210Z,74.55
2019-03-10T10:31:56.189Z,73.80
2019-03-10T10:32:56.167Z,72.28
2019-03-10T10:33:56.154Z,72.04
2019-03-10T10:34:56.141Z,72.92
2019-03-10T10:35:56.189Z,72.82
2019-03-10T10:36:56.145Z,72.75
2019-03-10T10:37:56.110Z,70.45
2019-03-10T10:38:56.096Z,69.47
2019-03-10T10:39:56.141Z,70.28
2019-03-10T10:40:56.075Z,70.48
2019-03-10T10:41:56.116Z,68.96
2019-03-10T10:42:56.066Z,68.32
2019-03-10T10:43:56.039Z,67.20
2019-03-10T10:44:56.069Z,67.64
2019-03-10T10:45:56.037Z,67.81
2019-03-10T10:46:56.009Z,66.29
2019-03-10T10:47:56.025Z,64.03
2019-03-10T10:48:56.004Z,63.55
2019-03-10T10:49:55.979Z,63.82
2019-03-10T10:50:55.969Z,65.14
2019-03-10T10:51:55.978Z,63.62
2019-03-10T10:52:55.946Z,63.82
2019-03-10T10:53:56.039Z,64.81
2019-03-10T10:54:55.931Z,62.85
2019-03-10T10:55:56.055Z,64.37
2019-03-10T10:56:55.931Z,66.30
2019-03-10T10:57:55.896Z,61.53
2019-03-10T10:58:55.887Z,61.33
2019-03-10T10:59:55.917Z,61.80
2019-03-10T11:00:55.863Z,60.82
2019-03-10T11:01:55.889Z,58.87
2019-03-10T11:02:55.833Z,59.91
2019-03-10T11:03:55.822Z,59.30
2019-03-10T11:04:55.820Z,59.41
2019-03-10T11:05:55.846Z,58.80
2019-03-10T11:06:55.840Z,57.68
2019-03-10T11:07:55.782Z,58.42
2019-03-10T11:08:55.784Z,59.26
2019-03-10T11:09:55.779Z,59.16
2019-03-10T11:10:55.848Z,59.74
2019-03-10T11:11:55.802Z,59.33
2019-03-10T11:12:55.729Z,58.59
2019-03-10T11:13:55.735Z,59.41
2019-03-10T11:14:55.701Z,58.59
2019-03-10T11:15:55.705Z,59.41
2019-03-10T11:16:55.696Z,58.87
2019-03-10T11:17:55.733Z,58.42
2019-03-10T11:18:55.666Z,59.03
2019-03-10T11:19:55.649Z,59.63
2019-03-10T11:20:56.397Z,59.30
2019-03-10T11:21:55.658Z,58.52
2019-03-10T11:22:55.614Z,57.28
2019-03-10T11:23:55.661Z,58.69
2019-03-10T11:24:55.598Z,58.80
2019-03-10T11:25:55.590Z,57.71
2019-03-10T11:26:55.576Z,59.61
2019-03-10T11:27:55.587Z,57.30
2019-03-10T11:28:55.550Z,59.63
2019-03-10T11:29:55.579Z,58.29
2019-03-10T11:30:55.626Z,57.48
2019-03-10T11:31:55.534Z,57.58
2019-03-10T11:32:55.615Z,57.35
2019-03-10T11:33:55.515Z,56.23
2019-03-10T11:34:55.498Z,55.93
2019-03-10T11:35:55.529Z,56.36
2019-03-10T11:36:55.486Z,56.18
2019-03-10T11:37:55.456Z,57.81
2019-03-10T11:38:55.444Z,59.26
2019-03-10T11:39:55.434Z,60.98
2019-03-10T11:40:55.441Z,60.98
2019-03-10T11:41:55.467Z,60.88
2019-03-10T11:42:55.401Z,59.46
2019-03-10T11:43:55.387Z,59.39
2019-03-10T11:44:55.387Z,60.60
2019-03-10T11:45:55.363Z,61.85
2019-03-10T11:46:55.357Z,62.29
2019-03-10T11:47:55.385Z,61.68
2019-03-10T11:48:55.354Z,61.88
2019-03-10T11:49:55.324Z,61.37
2019-03-10T11:50:55.309Z,61.07
2019-03-10T11:51:55.303Z,59.72
2019-03-10T11:52:55.304Z,60.10
2019-03-10T11:53:55.346Z,61.29
2019-03-10T11:54:55.267Z,58.92
2019-03-10T11:55:55.257Z,59.12
2019-03-10T11:56:55.245Z,58.72
2019-03-10T11:57:55.234Z,59.53
2019-03-10T11:58:55.256Z,59.70
2019-03-10T11:59:55.253Z,58.56
2019-03-10T12:00:55.203Z,59.41
2019-03-10T12:01:55.194Z,59.48
2019-03-10T12:02:55.182Z,59.48
2019-03-10T12:03:55.174Z,58.87
2019-03-10T12:04:55.187Z,57.04
2019-03-10T12:05:55.184Z,58.67
2019-03-10T12:06:55.135Z,59.17
2019-03-10T12:07:55.126Z,58.87
2019-03-10T12:08:55.116Z,57.68
2019-03-10T12:09:55.106Z,59.00
2019-03-10T12:10:55.109Z,57.88
2019-03-10T12:11:55.134Z,60.52
2019-03-10T12:12:55.071Z,58.18
2019-03-10T12:13:55.061Z,58.90
2019-03-10T12:14:55.047Z,58.04
2019-03-10T12:15:55.037Z,57.53
2019-03-10T12:16:55.027Z,57.15
2019-03-10T12:17:55.091Z,56.85
2019-03-10T12:18:55.026Z,58.37
2019-03-10T12:19:54.998Z,55.80
2019-03-10T12:20:55.034Z,55.88
2019-03-10T12:21:56.167Z,55.60
2019-03-10T12:22:54.968Z,55.22
2019-03-10T12:23:55.029Z,56.98
2019-03-10T12:24:54.946Z,57.38
2019-03-10T12:25:54.929Z,57.10
2019-03-10T12:26:54.920Z,57.15
2019-03-10T12:27:54.916Z,56.52
2019-03-10T12:28:54.900Z,56.01
2019-03-10T12:29:54.948Z,58.27
2019-03-10T12:30:54.876Z,56.65
2019-03-10T12:31:54.868Z,56.54
2019-03-10T12:32:54.882Z,57.21
2019-03-10T12:33:54.894Z,56.87
2019-03-10T12:34:54.835Z,57.35
2019-03-10T12:35:54.867Z,56.21
2019-03-10T12:36:54.839Z,57.59
2019-03-10T12:37:54.804Z,57.64
2019-03-10T12:38:54.799Z,57.43
2019-03-10T12:39:54.784Z,56.87
2019-03-10T12:40:54.773Z,58.47
2019-03-10T12:41:58.689Z,58.42
2019-03-10T12:42:54.758Z,58.24
2019-03-10T12:43:54.766Z,56.44
2019-03-10T12:44:54.809Z,59.59
2019-03-10T12:45:54.721Z,56.11
2019-03-10T12:46:54.707Z,55.78
2019-03-10T12:47:54.738Z,56.31
2019-03-10T12:48:55.333Z,59.11
2019-03-10T12:49:55.116Z,59.08
2019-03-10T12:50:55.641Z,57.03
2019-03-10T12:51:54.646Z,55.47